sensor_id;sensor_type;location;lat;lon;timestamp;temperature;humidity
3770;DHT22;1900;48.890;9.190;2023-07-31T00:02:14;23.40;55.60
3770;DHT22;1900;48.890;9.190;2023-07-31T00:04:40;23.40;55.60
3770;DHT22;1900;48.890;9.190;2023-07-31T00:07:06;23.30;55.50
3770;DHT22;1900;48.890;9.190;2023-07-31T00:09:32;23.30;55.50
3770;DHT22;1900;48.890;9.190;2023-07-31T00:11:59;23.20;55.50
3770;DHT22;1900;48.890;9.190;2023-07-31T00:14:25;23.20;55.50
3770;DHT22;1900;48.890;9.190;2023-07-31T00:16:50;23.20;55.50
3770;DHT22;1900;48.890;9.190;2023-07-31T00:19:16;23.20;55.60
3770;DHT22;1900;48.890;9.190;2023-07-31T00:21:41;23.20;55.60
3770;DHT22;1900;48.890;9.190;2023-07-31T00:24:07;23.20;55.60
3770;DHT22;1900;48.890;9.190;2023-07-31T00:26:33;23.10;56.10
3770;DHT22;1900;48.890;9.190;2023-07-31T00:28:58;23.10;55.50
3770;DHT22;1900;48.890;9.190;2023-07-31T00:31:24;23.10;55.50
3770;DHT22;1900;48.890;9.190;2023-07-31T00:33:50;23.00;55.40
3770;DHT22;1900;48.890;9.190;2023-07-31T00:36:15;23.00;55.40
3770;DHT22;1900;48.890;9.190;2023-07-31T00:38:42;23.00;55.40
3770;DHT22;1900;48.890;9.190;2023-07-31T00:41:07;22.90;55.30
3770;DHT22;1900;48.890;9.190;2023-07-31T00:43:33;22.90;55.40
3770;DHT22;1900;48.890;9.190;2023-07-31T00:46:00;22.90;55.30
3770;DHT22;1900;48.890;9.190;2023-07-31T00:48:26;22.90;55.40
3770;DHT22;1900;48.890;9.190;2023-07-31T00:50:52;22.80;55.30
3770;DHT22;1900;48.890;9.190;2023-07-31T00:53:18;22.80;55.40
3770;DHT22;1900;48.890;9.190;2023-07-31T00:55:44;22.80;55.30
3770;DHT22;1900;48.890;9.190;2023-07-31T00:58:10;22.70;55.20
3770;DHT22;1900;48.890;9.190;2023-07-31T01:00:38;22.70;55.20
3770;DHT22;1900;48.890;9.190;2023-07-31T01:03:04;22.70;55.20
3770;DHT22;1900;48.890;9.190;2023-07-31T01:05:39;22.60;55.20
3770;DHT22;1900;48.890;9.190;2023-07-31T01:08:11;22.60;55.20
3770;DHT22;1900;48.890;9.190;2023-07-31T01:10:48;22.60;55.20
3770;DHT22;1900;48.890;9.190;2023-07-31T01:13:15;22.50;55.10
3770;DHT22;1900;48.890;9.190;2023-07-31T01:15:41;22.50;55.10
3770;DHT22;1900;48.890;9.190;2023-07-31T01:18:07;22.40;55.00
3770;DHT22;1900;48.890;9.190;2023-07-31T01:20:33;22.40;55.00
3770;DHT22;1900;48.890;9.190;2023-07-31T01:29:01;22.30;55.10
3770;DHT22;1900;48.890;9.190;2023-07-31T01:31:29;22.30;55.20
3770;DHT22;1900;48.890;9.190;2023-07-31T01:33:59;22.20;55.00
3770;DHT22;1900;48.890;9.190;2023-07-31T01:36:25;22.20;55.00
3770;DHT22;1900;48.890;9.190;2023-07-31T01:38:51;22.10;54.90
3770;DHT22;1900;48.890;9.190;2023-07-31T01:41:17;22.10;54.90
3770;DHT22;1900;48.890;9.190;2023-07-31T01:43:47;22.00;54.80
3770;DHT22;1900;48.890;9.190;2023-07-31T01:46:12;22.00;54.90
3770;DHT22;1900;48.890;9.190;2023-07-31T01:48:38;22.00;54.90
3770;DHT22;1900;48.890;9.190;2023-07-31T01:51:05;21.90;54.90
3770;DHT22;1900;48.890;9.190;2023-07-31T01:53:34;21.90;54.90
3770;DHT22;1900;48.890;9.190;2023-07-31T01:56:00;21.90;55.10
3770;DHT22;1900;48.890;9.190;2023-07-31T01:58:25;21.90;55.10
3770;DHT22;1900;48.890;9.190;2023-07-31T02:00:51;21.80;55.00
3770;DHT22;1900;48.890;9.190;2023-07-31T02:03:17;21.80;55.10
3770;DHT22;1900;48.890;9.190;2023-07-31T02:05:49;21.80;55.10
3770;DHT22;1900;48.890;9.190;2023-07-31T02:08:15;21.80;55.10
3770;DHT22;1900;48.890;9.190;2023-07-31T02:10:42;21.80;55.10
3770;DHT22;1900;48.890;9.190;2023-07-31T02:13:08;21.70;55.00
3770;DHT22;1900;48.890;9.190;2023-07-31T02:15:34;21.70;55.00
3770;DHT22;1900;48.890;9.190;2023-07-31T02:18:00;21.70;55.10
3770;DHT22;1900;48.890;9.190;2023-07-31T02:20:25;21.70;55.10
3770;DHT22;1900;48.890;9.190;2023-07-31T02:22:51;21.60;55.00
3770;DHT22;1900;48.890;9.190;2023-07-31T02:25:18;21.60;55.10
3770;DHT22;1900;48.890;9.190;2023-07-31T02:27:44;21.60;55.10
3770;DHT22;1900;48.890;9.190;2023-07-31T02:30:10;21.60;55.10
3770;DHT22;1900;48.890;9.190;2023-07-31T02:32:36;21.60;55.10
3770;DHT22;1900;48.890;9.190;2023-07-31T02:35:02;21.60;55.10
3770;DHT22;1900;48.890;9.190;2023-07-31T02:37:28;21.50;55.10
3770;DHT22;1900;48.890;9.190;2023-07-31T02:39:54;21.50;55.10
3770;DHT22;1900;48.890;9.190;2023-07-31T02:42:20;21.50;55.10
3770;DHT22;1900;48.890;9.190;2023-07-31T02:44:46;21.50;55.20
3770;DHT22;1900;48.890;9.190;2023-07-31T02:47:11;21.50;55.20
3770;DHT22;1900;48.890;9.190;2023-07-31T02:49:37;21.50;55.20
3770;DHT22;1900;48.890;9.190;2023-07-31T02:52:06;21.50;55.20
3770;DHT22;1900;48.890;9.190;2023-07-31T02:54:31;21.40;55.10
3770;DHT22;1900;48.890;9.190;2023-07-31T02:56:57;21.40;55.10
3770;DHT22;1900;48.890;9.190;2023-07-31T02:59:23;21.40;55.20
3770;DHT22;1900;48.890;9.190;2023-07-31T03:01:48;21.40;55.20
3770;DHT22;1900;48.890;9.190;2023-07-31T03:04:14;21.40;55.30
3770;DHT22;1900;48.890;9.190;2023-07-31T03:06:40;21.40;55.30
3770;DHT22;1900;48.890;9.190;2023-07-31T03:09:05;21.40;55.30
3770;DHT22;1900;48.890;9.190;2023-07-31T03:11:31;21.40;55.30
3770;DHT22;1900;48.890;9.190;2023-07-31T03:13:57;21.40;55.30
3770;DHT22;1900;48.890;9.190;2023-07-31T03:16:23;21.40;55.40
3770;DHT22;1900;48.890;9.190;2023-07-31T03:18:48;21.40;55.40
3770;DHT22;1900;48.890;9.190;2023-07-31T03:21:14;21.40;55.40
3770;DHT22;1900;48.890;9.190;2023-07-31T03:23:40;21.40;55.40
3770;DHT22;1900;48.890;9.190;2023-07-31T03:26:07;21.40;55.50
3770;DHT22;1900;48.890;9.190;2023-07-31T03:28:33;21.40;55.50
3770;DHT22;1900;48.890;9.190;2023-07-31T03:30:58;21.40;55.50
3770;DHT22;1900;48.890;9.190;2023-07-31T03:33:25;21.40;55.50
3770;DHT22;1900;48.890;9.190;2023-07-31T03:35:51;21.40;56.10
3770;DHT22;1900;48.890;9.190;2023-07-31T03:38:17;21.40;55.50
3770;DHT22;1900;48.890;9.190;2023-07-31T03:40:43;21.40;55.50
3770;DHT22;1900;48.890;9.190;2023-07-31T03:43:11;21.40;55.50
3770;DHT22;1900;48.890;9.190;2023-07-31T03:45:38;21.40;55.50
3770;DHT22;1900;48.890;9.190;2023-07-31T03:48:04;21.40;55.50
3770;DHT22;1900;48.890;9.190;2023-07-31T03:50:30;21.40;55.50
3770;DHT22;1900;48.890;9.190;2023-07-31T03:52:56;21.40;55.50
3770;DHT22;1900;48.890;9.190;2023-07-31T03:55:22;21.40;55.50
3770;DHT22;1900;48.890;9.190;2023-07-31T03:57:47;21.40;55.50
3770;DHT22;1900;48.890;9.190;2023-07-31T04:00:13;21.30;55.50
3770;DHT22;1900;48.890;9.190;2023-07-31T04:02:40;21.40;55.50
3770;DHT22;1900;48.890;9.190;2023-07-31T04:05:07;21.40;55.50
3770;DHT22;1900;48.890;9.190;2023-07-31T04:07:32;21.40;55.60
3770;DHT22;1900;48.890;9.190;2023-07-31T04:09:59;21.40;55.60
3770;DHT22;1900;48.890;9.190;2023-07-31T04:12:25;21.40;55.60
3770;DHT22;1900;48.890;9.190;2023-07-31T04:14:51;21.30;55.50
3770;DHT22;1900;48.890;9.190;2023-07-31T04:17:19;21.30;55.50
3770;DHT22;1900;48.890;9.190;2023-07-31T04:19:45;21.40;55.70
3770;DHT22;1900;48.890;9.190;2023-07-31T04:22:11;21.40;55.70
3770;DHT22;1900;48.890;9.190;2023-07-31T04:24:36;21.40;55.70
3770;DHT22;1900;48.890;9.190;2023-07-31T04:27:02;21.40;55.80
3770;DHT22;1900;48.890;9.190;2023-07-31T04:29:28;21.40;55.80
3770;DHT22;1900;48.890;9.190;2023-07-31T04:31:54;21.40;55.80
3770;DHT22;1900;48.890;9.190;2023-07-31T04:34:19;21.40;55.80
3770;DHT22;1900;48.890;9.190;2023-07-31T04:36:45;21.40;55.80
3770;DHT22;1900;48.890;9.190;2023-07-31T04:39:10;21.50;55.90
3770;DHT22;1900;48.890;9.190;2023-07-31T04:41:36;21.40;55.90
3770;DHT22;1900;48.890;9.190;2023-07-31T04:44:02;21.50;56.00
3770;DHT22;1900;48.890;9.190;2023-07-31T04:46:29;21.60;56.10
3770;DHT22;1900;48.890;9.190;2023-07-31T04:48:55;21.60;56.10
3770;DHT22;1900;48.890;9.190;2023-07-31T04:51:20;21.60;56.10
3770;DHT22;1900;48.890;9.190;2023-07-31T04:53:46;21.60;56.20
3770;DHT22;1900;48.890;9.190;2023-07-31T04:56:12;21.60;56.10
3770;DHT22;1900;48.890;9.190;2023-07-31T04:58:38;21.70;56.20
3770;DHT22;1900;48.890;9.190;2023-07-31T05:01:06;21.70;56.20
3770;DHT22;1900;48.890;9.190;2023-07-31T05:03:32;21.70;56.10
3770;DHT22;1900;48.890;9.190;2023-07-31T05:05:57;21.70;56.10
3770;DHT22;1900;48.890;9.190;2023-07-31T05:08:26;21.70;56.20
3770;DHT22;1900;48.890;9.190;2023-07-31T05:10:54;21.70;56.20
3770;DHT22;1900;48.890;9.190;2023-07-31T05:13:20;21.80;56.20
3770;DHT22;1900;48.890;9.190;2023-07-31T05:15:46;21.80;56.20
3770;DHT22;1900;48.890;9.190;2023-07-31T05:18:12;21.80;56.20
3770;DHT22;1900;48.890;9.190;2023-07-31T05:20:37;21.80;56.20
3770;DHT22;1900;48.890;9.190;2023-07-31T05:23:03;21.80;56.20
3770;DHT22;1900;48.890;9.190;2023-07-31T05:25:28;21.80;56.20
3770;DHT22;1900;48.890;9.190;2023-07-31T05:27:54;21.80;56.30
3770;DHT22;1900;48.890;9.190;2023-07-31T05:30:20;21.90;56.40
3770;DHT22;1900;48.890;9.190;2023-07-31T05:32:47;21.90;56.40
3770;DHT22;1900;48.890;9.190;2023-07-31T05:35:12;21.90;56.40
3770;DHT22;1900;48.890;9.190;2023-07-31T05:37:38;22.00;56.50
3770;DHT22;1900;48.890;9.190;2023-07-31T05:40:04;22.00;56.40
3770;DHT22;1900;48.890;9.190;2023-07-31T05:42:30;22.00;56.50
3770;DHT22;1900;48.890;9.190;2023-07-31T05:44:55;22.00;56.80
3770;DHT22;1900;48.890;9.190;2023-07-31T05:47:21;22.00;56.50
3770;DHT22;1900;48.890;9.190;2023-07-31T05:49:48;22.10;56.70
3770;DHT22;1900;48.890;9.190;2023-07-31T05:52:14;22.10;56.70
3770;DHT22;1900;48.890;9.190;2023-07-31T05:54:41;22.10;56.80
3770;DHT22;1900;48.890;9.190;2023-07-31T05:57:07;22.20;56.90
3770;DHT22;1900;48.890;9.190;2023-07-31T05:59:35;22.20;56.90
3770;DHT22;1900;48.890;9.190;2023-07-31T06:02:01;22.30;57.10
3770;DHT22;1900;48.890;9.190;2023-07-31T06:04:26;22.30;57.00
3770;DHT22;1900;48.890;9.190;2023-07-31T06:06:52;22.30;57.00
3770;DHT22;1900;48.890;9.190;2023-07-31T06:09:18;22.40;57.00
3770;DHT22;1900;48.890;9.190;2023-07-31T06:11:43;22.40;57.00
3770;DHT22;1900;48.890;9.190;2023-07-31T06:14:09;22.50;57.00
3770;DHT22;1900;48.890;9.190;2023-07-31T06:16:35;22.50;57.00
3770;DHT22;1900;48.890;9.190;2023-07-31T06:19:01;22.50;57.00
3770;DHT22;1900;48.890;9.190;2023-07-31T06:21:27;22.60;57.20
3770;DHT22;1900;48.890;9.190;2023-07-31T06:23:52;22.60;57.20
3770;DHT22;1900;48.890;9.190;2023-07-31T06:26:18;22.60;57.10
3770;DHT22;1900;48.890;9.190;2023-07-31T06:28:44;22.70;57.20
3770;DHT22;1900;48.890;9.190;2023-07-31T06:31:09;22.70;57.30
3770;DHT22;1900;48.890;9.190;2023-07-31T06:33:35;22.80;57.40
3770;DHT22;1900;48.890;9.190;2023-07-31T06:36:01;22.80;57.30
3770;DHT22;1900;48.890;9.190;2023-07-31T06:38:27;22.90;57.40
3770;DHT22;1900;48.890;9.190;2023-07-31T06:40:53;22.90;57.40
3770;DHT22;1900;48.890;9.190;2023-07-31T06:43:19;22.90;57.40
3770;DHT22;1900;48.890;9.190;2023-07-31T06:45:44;23.00;57.60
3770;DHT22;1900;48.890;9.190;2023-07-31T06:48:11;23.00;57.60
3770;DHT22;1900;48.890;9.190;2023-07-31T06:50:37;23.10;57.70
3770;DHT22;1900;48.890;9.190;2023-07-31T06:53:02;23.10;57.70
3770;DHT22;1900;48.890;9.190;2023-07-31T06:55:28;23.20;57.80
3770;DHT22;1900;48.890;9.190;2023-07-31T06:57:55;23.20;57.70
3770;DHT22;1900;48.890;9.190;2023-07-31T07:00:23;23.30;57.80
3770;DHT22;1900;48.890;9.190;2023-07-31T07:02:50;23.30;57.70
3770;DHT22;1900;48.890;9.190;2023-07-31T07:05:21;23.40;57.80
3770;DHT22;1900;48.890;9.190;2023-07-31T07:07:49;23.40;57.80
3770;DHT22;1900;48.890;9.190;2023-07-31T07:10:16;23.50;57.90
3770;DHT22;1900;48.890;9.190;2023-07-31T07:12:42;23.50;57.80
3770;DHT22;1900;48.890;9.190;2023-07-31T07:15:08;23.60;58.40
3770;DHT22;1900;48.890;9.190;2023-07-31T07:17:34;23.60;57.80
3770;DHT22;1900;48.890;9.190;2023-07-31T07:20:02;23.60;57.80
3770;DHT22;1900;48.890;9.190;2023-07-31T07:22:29;23.70;57.80
3770;DHT22;1900;48.890;9.190;2023-07-31T07:24:54;23.70;57.80
3770;DHT22;1900;48.890;9.190;2023-07-31T07:27:27;23.80;57.80
3770;DHT22;1900;48.890;9.190;2023-07-31T07:29:53;23.80;57.70
3770;DHT22;1900;48.890;9.190;2023-07-31T07:32:19;23.90;57.70
3770;DHT22;1900;48.890;9.190;2023-07-31T07:34:44;23.90;57.90
3770;DHT22;1900;48.890;9.190;2023-07-31T07:37:11;23.90;57.90
3770;DHT22;1900;48.890;9.190;2023-07-31T07:39:37;24.00;58.10
3770;DHT22;1900;48.890;9.190;2023-07-31T07:42:02;24.00;57.90
3770;DHT22;1900;48.890;9.190;2023-07-31T07:44:28;24.10;57.90
3770;DHT22;1900;48.890;9.190;2023-07-31T07:46:54;24.10;57.90
3770;DHT22;1900;48.890;9.190;2023-07-31T07:49:20;24.10;57.70
3770;DHT22;1900;48.890;9.190;2023-07-31T07:51:48;24.20;57.60
3770;DHT22;1900;48.890;9.190;2023-07-31T07:54:15;24.20;57.80
3770;DHT22;1900;48.890;9.190;2023-07-31T07:56:42;24.20;57.80
3770;DHT22;1900;48.890;9.190;2023-07-31T07:59:08;24.20;57.90
3770;DHT22;1900;48.890;9.190;2023-07-31T08:01:34;24.30;57.80
3770;DHT22;1900;48.890;9.190;2023-07-31T08:04:00;24.30;57.80
3770;DHT22;1900;48.890;9.190;2023-07-31T08:06:26;24.40;58.50
3770;DHT22;1900;48.890;9.190;2023-07-31T08:08:52;24.40;57.80
3770;DHT22;1900;48.890;9.190;2023-07-31T08:11:17;24.50;57.20
3770;DHT22;1900;48.890;9.190;2023-07-31T08:13:43;24.50;57.50
3770;DHT22;1900;48.890;9.190;2023-07-31T08:16:12;24.50;57.70
3770;DHT22;1900;48.890;9.190;2023-07-31T08:18:40;24.60;58.00
3770;DHT22;1900;48.890;9.190;2023-07-31T08:21:08;24.70;58.30
3770;DHT22;1900;48.890;9.190;2023-07-31T08:23:34;24.70;57.60
3770;DHT22;1900;48.890;9.190;2023-07-31T08:26:02;24.80;57.10
3770;DHT22;1900;48.890;9.190;2023-07-31T08:28:28;24.80;56.80
3770;DHT22;1900;48.890;9.190;2023-07-31T08:30:54;24.80;57.10
3770;DHT22;1900;48.890;9.190;2023-07-31T08:33:19;24.80;57.30
3770;DHT22;1900;48.890;9.190;2023-07-31T08:35:45;24.80;57.50
3770;DHT22;1900;48.890;9.190;2023-07-31T08:38:12;24.90;57.70
3770;DHT22;1900;48.890;9.190;2023-07-31T08:40:37;24.90;57.80
3770;DHT22;1900;48.890;9.190;2023-07-31T08:43:04;25.00;57.60
3770;DHT22;1900;48.890;9.190;2023-07-31T08:45:30;25.10;57.10
3770;DHT22;1900;48.890;9.190;2023-07-31T08:47:56;25.10;57.00
3770;DHT22;1900;48.890;9.190;2023-07-31T08:50:25;25.10;57.10
3770;DHT22;1900;48.890;9.190;2023-07-31T08:52:52;25.10;57.10
3770;DHT22;1900;48.890;9.190;2023-07-31T08:55:18;25.10;57.40
3770;DHT22;1900;48.890;9.190;2023-07-31T08:58:01;25.20;57.10
3770;DHT22;1900;48.890;9.190;2023-07-31T09:00:29;25.20;57.30
3770;DHT22;1900;48.890;9.190;2023-07-31T09:05:23;25.30;57.60
3770;DHT22;1900;48.890;9.190;2023-07-31T09:07:51;25.30;57.70
3770;DHT22;1900;48.890;9.190;2023-07-31T09:10:17;25.40;57.80
3770;DHT22;1900;48.890;9.190;2023-07-31T09:12:43;25.40;58.50
3770;DHT22;1900;48.890;9.190;2023-07-31T09:15:11;25.40;58.00
3770;DHT22;1900;48.890;9.190;2023-07-31T09:17:37;25.50;58.00
3770;DHT22;1900;48.890;9.190;2023-07-31T09:22:41;25.60;58.00
3770;DHT22;1900;48.890;9.190;2023-07-31T09:25:24;25.70;58.00
3770;DHT22;1900;48.890;9.190;2023-07-31T09:27:59;25.70;57.60
3770;DHT22;1900;48.890;9.190;2023-07-31T09:30:26;25.70;57.40
3770;DHT22;1900;48.890;9.190;2023-07-31T09:33:03;25.70;57.20
3770;DHT22;1900;48.890;9.190;2023-07-31T09:35:30;25.70;57.20
3770;DHT22;1900;48.890;9.190;2023-07-31T09:37:59;25.60;57.10
3770;DHT22;1900;48.890;9.190;2023-07-31T09:40:35;25.60;56.80
3770;DHT22;1900;48.890;9.190;2023-07-31T09:43:03;25.60;56.50
3770;DHT22;1900;48.890;9.190;2023-07-31T09:45:30;25.50;56.80
3770;DHT22;1900;48.890;9.190;2023-07-31T09:47:56;25.60;57.00
3770;DHT22;1900;48.890;9.190;2023-07-31T09:50:23;25.60;56.90
3770;DHT22;1900;48.890;9.190;2023-07-31T09:52:50;25.50;56.50
3770;DHT22;1900;48.890;9.190;2023-07-31T09:55:16;25.60;56.80
3770;DHT22;1900;48.890;9.190;2023-07-31T09:57:44;25.50;56.80
3770;DHT22;1900;48.890;9.190;2023-07-31T10:00:13;25.60;56.80
3770;DHT22;1900;48.890;9.190;2023-07-31T10:02:41;25.60;57.10
3770;DHT22;1900;48.890;9.190;2023-07-31T10:05:08;25.60;57.30
3770;DHT22;1900;48.890;9.190;2023-07-31T10:07:37;25.70;57.60
3770;DHT22;1900;48.890;9.190;2023-07-31T10:10:08;25.70;57.70
3770;DHT22;1900;48.890;9.190;2023-07-31T10:12:36;25.80;57.90
3770;DHT22;1900;48.890;9.190;2023-07-31T10:15:02;25.90;58.00
3770;DHT22;1900;48.890;9.190;2023-07-31T10:17:30;26.00;58.10
3770;DHT22;1900;48.890;9.190;2023-07-31T10:19:58;26.10;57.90
3770;DHT22;1900;48.890;9.190;2023-07-31T10:22:25;26.20;58.10
3770;DHT22;1900;48.890;9.190;2023-07-31T10:24:52;26.30;58.10
3770;DHT22;1900;48.890;9.190;2023-07-31T10:27:20;26.30;58.10
3770;DHT22;1900;48.890;9.190;2023-07-31T10:29:47;26.50;57.60
3770;DHT22;1900;48.890;9.190;2023-07-31T10:32:15;26.50;57.10
3770;DHT22;1900;48.890;9.190;2023-07-31T10:34:42;26.50;57.10
3770;DHT22;1900;48.890;9.190;2023-07-31T10:37:25;26.50;57.30
3770;DHT22;1900;48.890;9.190;2023-07-31T10:39:58;26.60;57.20
3770;DHT22;1900;48.890;9.190;2023-07-31T10:42:33;26.60;57.40
3770;DHT22;1900;48.890;9.190;2023-07-31T10:45:02;26.60;56.70
3770;DHT22;1900;48.890;9.190;2023-07-31T10:47:28;26.70;57.10
3770;DHT22;1900;48.890;9.190;2023-07-31T10:50:20;26.70;56.40
3770;DHT22;1900;48.890;9.190;2023-07-31T10:52:54;26.70;56.00
3770;DHT22;1900;48.890;9.190;2023-07-31T10:55:41;26.60;56.10
3770;DHT22;1900;48.890;9.190;2023-07-31T10:58:09;26.60;56.40
3770;DHT22;1900;48.890;9.190;2023-07-31T11:03:08;26.60;56.10
3770;DHT22;1900;48.890;9.190;2023-07-31T11:08:25;26.60;56.80
3770;DHT22;1900;48.890;9.190;2023-07-31T11:13:41;26.70;57.30
3770;DHT22;1900;48.890;9.190;2023-07-31T11:16:14;26.80;57.50
3770;DHT22;1900;48.890;9.190;2023-07-31T11:18:41;26.90;57.70
3770;DHT22;1900;48.890;9.190;2023-07-31T11:21:18;26.90;57.80
3770;DHT22;1900;48.890;9.190;2023-07-31T11:23:52;27.00;57.80
3770;DHT22;1900;48.890;9.190;2023-07-31T11:26:19;27.10;57.70
3770;DHT22;1900;48.890;9.190;2023-07-31T11:28:48;27.10;57.50
3770;DHT22;1900;48.890;9.190;2023-07-31T11:31:15;27.20;57.60
3770;DHT22;1900;48.890;9.190;2023-07-31T11:33:40;27.20;57.70
3770;DHT22;1900;48.890;9.190;2023-07-31T11:36:10;27.30;57.50
3770;DHT22;1900;48.890;9.190;2023-07-31T11:38:39;27.30;57.50
3770;DHT22;1900;48.890;9.190;2023-07-31T11:41:05;27.30;57.50
3770;DHT22;1900;48.890;9.190;2023-07-31T11:43:31;27.40;57.60
3770;DHT22;1900;48.890;9.190;2023-07-31T11:45:59;27.40;57.50
3770;DHT22;1900;48.890;9.190;2023-07-31T11:50:53;27.50;57.50
3770;DHT22;1900;48.890;9.190;2023-07-31T11:53:25;27.50;57.50
3770;DHT22;1900;48.890;9.190;2023-07-31T11:55:55;27.50;57.40
3770;DHT22;1900;48.890;9.190;2023-07-31T11:58:21;27.50;57.40
3770;DHT22;1900;48.890;9.190;2023-07-31T12:00:47;27.50;57.40
3770;DHT22;1900;48.890;9.190;2023-07-31T12:03:14;27.50;57.20
3770;DHT22;1900;48.890;9.190;2023-07-31T12:05:40;27.50;57.30
3770;DHT22;1900;48.890;9.190;2023-07-31T12:08:09;27.60;57.50
3770;DHT22;1900;48.890;9.190;2023-07-31T12:10:36;27.60;57.60
3770;DHT22;1900;48.890;9.190;2023-07-31T12:13:08;27.70;57.40
3770;DHT22;1900;48.890;9.190;2023-07-31T12:15:43;27.70;57.40
3770;DHT22;1900;48.890;9.190;2023-07-31T12:18:10;27.80;57.50
3770;DHT22;1900;48.890;9.190;2023-07-31T12:20:44;27.80;57.10
3770;DHT22;1900;48.890;9.190;2023-07-31T12:26:07;27.80;57.10
3770;DHT22;1900;48.890;9.190;2023-07-31T12:31:10;27.90;57.30
3770;DHT22;1900;48.890;9.190;2023-07-31T12:33:38;27.90;57.40
3770;DHT22;1900;48.890;9.190;2023-07-31T12:36:10;27.90;57.60
3770;DHT22;1900;48.890;9.190;2023-07-31T12:38:36;28.00;57.70
3770;DHT22;1900;48.890;9.190;2023-07-31T12:41:01;28.10;57.90
3770;DHT22;1900;48.890;9.190;2023-07-31T12:43:27;28.10;58.00
3770;DHT22;1900;48.890;9.190;2023-07-31T12:45:56;28.20;57.90
3770;DHT22;1900;48.890;9.190;2023-07-31T12:48:22;28.30;57.50
3770;DHT22;1900;48.890;9.190;2023-07-31T12:50:48;28.30;57.30
3770;DHT22;1900;48.890;9.190;2023-07-31T12:53:15;28.30;57.40
3770;DHT22;1900;48.890;9.190;2023-07-31T12:55:40;28.30;57.40
3770;DHT22;1900;48.890;9.190;2023-07-31T12:58:06;28.30;57.40
3770;DHT22;1900;48.890;9.190;2023-07-31T13:00:32;28.30;57.30
3770;DHT22;1900;48.890;9.190;2023-07-31T13:02:59;28.30;57.20
3770;DHT22;1900;48.890;9.190;2023-07-31T13:05:26;28.40;57.30
3770;DHT22;1900;48.890;9.190;2023-07-31T13:07:52;28.40;57.30
3770;DHT22;1900;48.890;9.190;2023-07-31T13:10:17;28.50;58.10
3770;DHT22;1900;48.890;9.190;2023-07-31T13:12:43;28.50;57.70
3770;DHT22;1900;48.890;9.190;2023-07-31T13:15:09;28.60;57.80
3770;DHT22;1900;48.890;9.190;2023-07-31T13:17:35;28.60;57.60
3770;DHT22;1900;48.890;9.190;2023-07-31T13:20:01;28.60;57.50
3770;DHT22;1900;48.890;9.190;2023-07-31T13:22:27;28.70;57.30
3770;DHT22;1900;48.890;9.190;2023-07-31T13:24:53;28.70;57.00
3770;DHT22;1900;48.890;9.190;2023-07-31T13:27:18;28.70;56.90
3770;DHT22;1900;48.890;9.190;2023-07-31T13:29:47;28.60;56.70
3770;DHT22;1900;48.890;9.190;2023-07-31T13:32:14;28.60;56.80
3770;DHT22;1900;48.890;9.190;2023-07-31T13:34:39;28.60;56.80
3770;DHT22;1900;48.890;9.190;2023-07-31T13:37:05;28.60;56.50
3770;DHT22;1900;48.890;9.190;2023-07-31T13:39:34;28.60;56.50
3770;DHT22;1900;48.890;9.190;2023-07-31T13:42:01;28.60;56.80
3770;DHT22;1900;48.890;9.190;2023-07-31T13:44:27;28.70;57.20
3770;DHT22;1900;48.890;9.190;2023-07-31T13:46:53;28.70;57.40
3770;DHT22;1900;48.890;9.190;2023-07-31T13:49:19;28.80;57.40
3770;DHT22;1900;48.890;9.190;2023-07-31T13:51:44;28.80;57.20
3770;DHT22;1900;48.890;9.190;2023-07-31T13:54:10;28.80;57.20
3770;DHT22;1900;48.890;9.190;2023-07-31T13:56:40;28.80;57.10
3770;DHT22;1900;48.890;9.190;2023-07-31T13:59:06;28.90;57.10
3770;DHT22;1900;48.890;9.190;2023-07-31T14:01:32;28.90;57.10
3770;DHT22;1900;48.890;9.190;2023-07-31T14:03:58;28.90;57.20
3770;DHT22;1900;48.890;9.190;2023-07-31T14:06:23;29.00;57.40
3770;DHT22;1900;48.890;9.190;2023-07-31T14:08:49;29.00;57.30
3770;DHT22;1900;48.890;9.190;2023-07-31T14:11:15;29.00;57.10
3770;DHT22;1900;48.890;9.190;2023-07-31T14:13:40;29.00;57.00
3770;DHT22;1900;48.890;9.190;2023-07-31T14:16:06;29.00;56.90
3770;DHT22;1900;48.890;9.190;2023-07-31T14:18:32;29.00;56.90
3770;DHT22;1900;48.890;9.190;2023-07-31T14:20:57;29.00;56.80
3770;DHT22;1900;48.890;9.190;2023-07-31T14:23:23;29.00;56.70
3770;DHT22;1900;48.890;9.190;2023-07-31T14:25:49;29.00;56.60
3770;DHT22;1900;48.890;9.190;2023-07-31T14:28:14;29.00;56.50
3770;DHT22;1900;48.890;9.190;2023-07-31T14:30:40;28.90;56.30
3770;DHT22;1900;48.890;9.190;2023-07-31T14:33:06;28.90;56.50
3770;DHT22;1900;48.890;9.190;2023-07-31T14:35:32;28.90;56.70
3770;DHT22;1900;48.890;9.190;2023-07-31T14:37:57;28.90;56.60
3770;DHT22;1900;48.890;9.190;2023-07-31T14:40:23;28.90;56.60
3770;DHT22;1900;48.890;9.190;2023-07-31T14:42:48;28.90;56.70
3770;DHT22;1900;48.890;9.190;2023-07-31T14:45:14;29.00;56.90
3770;DHT22;1900;48.890;9.190;2023-07-31T14:47:40;29.00;57.00
3770;DHT22;1900;48.890;9.190;2023-07-31T14:50:06;29.00;57.10
3770;DHT22;1900;48.890;9.190;2023-07-31T14:52:32;29.10;57.20
3770;DHT22;1900;48.890;9.190;2023-07-31T14:54:57;29.10;57.00
3770;DHT22;1900;48.890;9.190;2023-07-31T14:57:23;29.10;57.10
3770;DHT22;1900;48.890;9.190;2023-07-31T14:59:49;29.20;57.20
3770;DHT22;1900;48.890;9.190;2023-07-31T15:02:15;29.20;57.20
3770;DHT22;1900;48.890;9.190;2023-07-31T15:04:41;29.30;56.70
3770;DHT22;1900;48.890;9.190;2023-07-31T15:07:06;29.30;56.70
3770;DHT22;1900;48.890;9.190;2023-07-31T15:09:32;29.30;56.70
3770;DHT22;1900;48.890;9.190;2023-07-31T15:11:58;29.30;56.70
3770;DHT22;1900;48.890;9.190;2023-07-31T15:14:24;29.30;56.80
3770;DHT22;1900;48.890;9.190;2023-07-31T15:16:50;29.30;56.80
3770;DHT22;1900;48.890;9.190;2023-07-31T15:19:16;29.40;56.90
3770;DHT22;1900;48.890;9.190;2023-07-31T15:21:41;29.40;56.90
3770;DHT22;1900;48.890;9.190;2023-07-31T15:24:07;29.40;57.00
3770;DHT22;1900;48.890;9.190;2023-07-31T15:26:33;29.40;56.90
3770;DHT22;1900;48.890;9.190;2023-07-31T15:29:04;29.40;56.90
3770;DHT22;1900;48.890;9.190;2023-07-31T15:31:34;29.50;56.90
3770;DHT22;1900;48.890;9.190;2023-07-31T15:34:00;29.50;57.00
3770;DHT22;1900;48.890;9.190;2023-07-31T15:36:25;29.50;57.00
3770;DHT22;1900;48.890;9.190;2023-07-31T15:38:51;29.50;57.00
3770;DHT22;1900;48.890;9.190;2023-07-31T15:41:18;29.60;57.10
3770;DHT22;1900;48.890;9.190;2023-07-31T15:43:44;29.60;57.10
3770;DHT22;1900;48.890;9.190;2023-07-31T15:46:11;29.60;56.80
3770;DHT22;1900;48.890;9.190;2023-07-31T15:48:37;29.60;56.80
3770;DHT22;1900;48.890;9.190;2023-07-31T15:51:03;29.60;56.70
3770;DHT22;1900;48.890;9.190;2023-07-31T15:53:29;29.60;56.80
3770;DHT22;1900;48.890;9.190;2023-07-31T15:55:55;29.60;56.80
3770;DHT22;1900;48.890;9.190;2023-07-31T15:58:21;29.70;56.80
3770;DHT22;1900;48.890;9.190;2023-07-31T16:00:47;29.70;56.80
3770;DHT22;1900;48.890;9.190;2023-07-31T16:03:13;29.70;56.70
3770;DHT22;1900;48.890;9.190;2023-07-31T16:05:38;29.70;56.60
3770;DHT22;1900;48.890;9.190;2023-07-31T16:08:04;29.60;56.50
3770;DHT22;1900;48.890;9.190;2023-07-31T16:10:30;29.60;56.40
3770;DHT22;1900;48.890;9.190;2023-07-31T16:12:56;29.60;56.40
3770;DHT22;1900;48.890;9.190;2023-07-31T16:15:22;29.60;56.30
3770;DHT22;1900;48.890;9.190;2023-07-31T16:17:48;29.60;56.40
3770;DHT22;1900;48.890;9.190;2023-07-31T16:20:13;29.60;56.30
3770;DHT22;1900;48.890;9.190;2023-07-31T16:22:39;29.60;56.30
3770;DHT22;1900;48.890;9.190;2023-07-31T16:25:05;29.50;56.20
3770;DHT22;1900;48.890;9.190;2023-07-31T16:27:31;29.60;56.30